Wabasso, FL (32970)

4:18 PM EST on November 22, 2014 (GMT -0500)
Windsor | Change Station
CLOSE
Current Station
Personal Weather Station
Location: Vero Beach, FL
Elevation: 30 ft
Nearby Weather Stations
Active Advisory: Coastal Hazard Statement

Elev 30 ft 27.79 °N, 80.42 °W | Updated 3 seconds ago

Overcast
Overcast
71.5 °F
Feels Like 71.5 °F
N
8.0
Wind Variable Wind from ESE
Gusts 26.0 mph

Today
High -- | Low -- °F
--% Chance of Precip.
Yesterday
High -- | Low -- °F
Precip. -- in
6:48 AM 5:27 PM
New Moon, 0% visible
Pressure 30.14 in
Visibility 10.0 miles
Clouds Few 2600 ft
Mostly Cloudy 5000 ft
Overcast 6000 ft
Dew Point 70 °F
Humidity 94%
Rainfall 0.09 in
Snow Depth Not available.
UV 0 out of 12
Pollen 4.40 out of 12
Air Quality Not available.
Flu Activity Not available.
METAR KVRB 222053Z 10015G22KT 10SM FEW026 BKN050 OVC060 22/19 A3014 RMK AO2 RAB01E11B34E43 SLP204 P0001 60006 T02220194 58009

More Conditions Fewer Conditions

Pressure 30.14 in
Visibility 10.0 miles
Clouds Few 2600 ft
Mostly Cloudy 5000 ft
Overcast 6000 ft
Dew Point 70 °F
Humidity 94%
Rainfall 0.09 in
Snow Depth Not available.
UV 0 out of 12
Pollen 4.40 out of 12
Air Quality Not available.
Flu Activity Not available.
METAR KVRB 222053Z 10015G22KT 10SM FEW026 BKN050 OVC060 22/19 A3014 RMK AO2 RAB01E11B34E43 SLP204 P0001 60006 T02220194 58009

More Conditions Fewer Conditions

Nowcast | as of 1:45 PM EST on November 22, 2014

Through late afternoon...a tight pressure gradient exists across east central Florida today making for breezy conditions. Easterly winds will average between 15 and 20 mph with frequent higher gusts. Increasing moisture across the area will allow for scattered showers to develop through the day. Afternoon high temperatures will average in the 70s areawide. Additional details...including graphics are available online at: http://www.Srh.NOAA.Gov/mlb/blog.Php

×

10-Day Weather Forecast

Almanac

Astronomy

Nov. 22, 2014 Rise Set
Actual Time
Civil Twilight
Nautical Twilight
Astronomical Twilight
Moon
Length of Visible Light
Length of Day
Tomorrow will be .
, % of the Moon is Illuminated

Today's Extremes

State Highs State Lows

Community

WunderPhotos

Upload Photos

1,772,904 photos uploaded!

WunderBlogs® & News

Nearby

Air Quality

  Air Quality AQ Index Pollutant
Not available.

Snow Depth

Station Depth Elevation

Earthquake Activity

City Distance Mag. Time & Date
Minimum magnitude displayed is 2.5.

Coastal Water Temperatures

Place Temperature

Nearby Weather Stations